sensor_id;sensor_type;location;lat;lon;timestamp;P1;durP1;ratioP1;P2;durP2;ratioP2
76202;SDS011;64985;46.364;17.008;2024-01-27T00:01:55;29.85;;;12.25;;
76202;SDS011;64985;46.364;17.008;2024-01-27T00:04:58;29.15;;;11.70;;
76202;SDS011;64985;46.364;17.008;2024-01-27T00:08:00;31.98;;;11.85;;
76202;SDS011;64985;46.364;17.008;2024-01-27T00:11:02;29.58;;;13.05;;
76202;SDS011;64985;46.364;17.008;2024-01-27T00:14:05;30.83;;;11.80;;
76202;SDS011;64985;46.364;17.008;2024-01-27T00:17:07;26.58;;;11.15;;
76202;SDS011;64985;46.364;17.008;2024-01-27T00:20:10;25.67;;;9.98;;
76202;SDS011;64985;46.364;17.008;2024-01-27T00:23:13;21.63;;;8.55;;
76202;SDS011;64985;46.364;17.008;2024-01-27T00:26:15;19.33;;;7.47;;
76202;SDS011;64985;46.364;17.008;2024-01-27T00:29:18;15.75;;;6.70;;
76202;SDS011;64985;46.364;17.008;2024-01-27T00:32:20;18.45;;;7.05;;
76202;SDS011;64985;46.364;17.008;2024-01-27T00:35:22;16.45;;;6.63;;
76202;SDS011;64985;46.364;17.008;2024-01-27T00:38:25;18.85;;;7.07;;
76202;SDS011;64985;46.364;17.008;2024-01-27T00:41:27;14.27;;;5.85;;
76202;SDS011;64985;46.364;17.008;2024-01-27T00:44:29;14.75;;;6.60;;
76202;SDS011;64985;46.364;17.008;2024-01-27T00:47:32;12.18;;;5.63;;
76202;SDS011;64985;46.364;17.008;2024-01-27T00:50:34;13.90;;;6.43;;
76202;SDS011;64985;46.364;17.008;2024-01-27T00:53:37;17.98;;;6.72;;
76202;SDS011;64985;46.364;17.008;2024-01-27T00:56:39;14.73;;;5.75;;
76202;SDS011;64985;46.364;17.008;2024-01-27T00:59:41;10.38;;;4.55;;
76202;SDS011;64985;46.364;17.008;2024-01-27T01:02:43;9.55;;;4.07;;
76202;SDS011;64985;46.364;17.008;2024-01-27T01:05:46;8.77;;;3.80;;
76202;SDS011;64985;46.364;17.008;2024-01-27T01:08:48;7.68;;;3.78;;
76202;SDS011;64985;46.364;17.008;2024-01-27T01:11:50;7.32;;;3.15;;
76202;SDS011;64985;46.364;17.008;2024-01-27T01:14:53;5.88;;;2.30;;
76202;SDS011;64985;46.364;17.008;2024-01-27T01:17:55;7.25;;;3.22;;
76202;SDS011;64985;46.364;17.008;2024-01-27T01:20:58;5.47;;;2.75;;
76202;SDS011;64985;46.364;17.008;2024-01-27T01:24:00;5.50;;;2.35;;
76202;SDS011;64985;46.364;17.008;2024-01-27T01:27:03;2.90;;;1.60;;
76202;SDS011;64985;46.364;17.008;2024-01-27T01:30:06;3.60;;;1.70;;
76202;SDS011;64985;46.364;17.008;2024-01-27T01:33:10;3.88;;;1.30;;
76202;SDS011;64985;46.364;17.008;2024-01-27T01:36:13;3.03;;;1.40;;
76202;SDS011;64985;46.364;17.008;2024-01-27T01:39:15;2.28;;;1.55;;
76202;SDS011;64985;46.364;17.008;2024-01-27T01:42:17;3.25;;;1.48;;
76202;SDS011;64985;46.364;17.008;2024-01-27T01:45:22;3.45;;;1.70;;
76202;SDS011;64985;46.364;17.008;2024-01-27T01:48:24;3.85;;;1.75;;
76202;SDS011;64985;46.364;17.008;2024-01-27T01:51:27;3.03;;;1.40;;
76202;SDS011;64985;46.364;17.008;2024-01-27T01:54:29;2.63;;;1.48;;
76202;SDS011;64985;46.364;17.008;2024-01-27T01:57:33;2.92;;;1.63;;
76202;SDS011;64985;46.364;17.008;2024-01-27T02:00:35;2.90;;;1.40;;
76202;SDS011;64985;46.364;17.008;2024-01-27T02:03:38;3.45;;;1.98;;
76202;SDS011;64985;46.364;17.008;2024-01-27T02:06:40;4.63;;;1.50;;
76202;SDS011;64985;46.364;17.008;2024-01-27T02:09:43;5.93;;;2.35;;
76202;SDS011;64985;46.364;17.008;2024-01-27T02:12:45;5.28;;;2.28;;
76202;SDS011;64985;46.364;17.008;2024-01-27T02:15:48;5.25;;;2.40;;
76202;SDS011;64985;46.364;17.008;2024-01-27T02:18:51;6.28;;;2.60;;
76202;SDS011;64985;46.364;17.008;2024-01-27T02:21:53;5.60;;;2.47;;
76202;SDS011;64985;46.364;17.008;2024-01-27T02:24:56;5.03;;;2.10;;
76202;SDS011;64985;46.364;17.008;2024-01-27T02:27:58;5.50;;;2.00;;
76202;SDS011;64985;46.364;17.008;2024-01-27T02:31:01;6.32;;;1.90;;
76202;SDS011;64985;46.364;17.008;2024-01-27T02:34:03;3.60;;;1.73;;
76202;SDS011;64985;46.364;17.008;2024-01-27T02:37:05;4.00;;;1.60;;
76202;SDS011;64985;46.364;17.008;2024-01-27T02:40:08;6.45;;;2.33;;
76202;SDS011;64985;46.364;17.008;2024-01-27T02:43:13;5.10;;;2.30;;
76202;SDS011;64985;46.364;17.008;2024-01-27T02:46:15;5.45;;;2.30;;
76202;SDS011;64985;46.364;17.008;2024-01-27T02:49:18;6.05;;;2.70;;
76202;SDS011;64985;46.364;17.008;2024-01-27T02:52:20;5.82;;;2.50;;
76202;SDS011;64985;46.364;17.008;2024-01-27T02:55:23;5.45;;;2.60;;
76202;SDS011;64985;46.364;17.008;2024-01-27T02:58:25;3.95;;;1.90;;
76202;SDS011;64985;46.364;17.008;2024-01-27T03:01:27;7.00;;;2.00;;
76202;SDS011;64985;46.364;17.008;2024-01-27T03:04:30;4.13;;;2.00;;
76202;SDS011;64985;46.364;17.008;2024-01-27T03:07:32;5.80;;;2.05;;
76202;SDS011;64985;46.364;17.008;2024-01-27T03:10:34;5.10;;;2.65;;
76202;SDS011;64985;46.364;17.008;2024-01-27T03:13:37;4.35;;;2.40;;
76202;SDS011;64985;46.364;17.008;2024-01-27T03:16:46;8.00;;;3.40;;
76202;SDS011;64985;46.364;17.008;2024-01-27T03:19:48;8.75;;;4.03;;
76202;SDS011;64985;46.364;17.008;2024-01-27T03:22:51;7.28;;;3.47;;
76202;SDS011;64985;46.364;17.008;2024-01-27T03:25:53;6.45;;;3.40;;
76202;SDS011;64985;46.364;17.008;2024-01-27T03:28:56;8.15;;;2.85;;
76202;SDS011;64985;46.364;17.008;2024-01-27T03:31:58;6.03;;;3.05;;
76202;SDS011;64985;46.364;17.008;2024-01-27T03:35:00;4.72;;;2.70;;
76202;SDS011;64985;46.364;17.008;2024-01-27T03:38:03;5.30;;;2.50;;
76202;SDS011;64985;46.364;17.008;2024-01-27T03:41:06;3.42;;;2.20;;
76202;SDS011;64985;46.364;17.008;2024-01-27T03:44:09;6.05;;;2.70;;
76202;SDS011;64985;46.364;17.008;2024-01-27T03:47:11;7.22;;;2.90;;
76202;SDS011;64985;46.364;17.008;2024-01-27T03:50:13;9.43;;;3.53;;
76202;SDS011;64985;46.364;17.008;2024-01-27T03:53:15;8.07;;;3.83;;
76202;SDS011;64985;46.364;17.008;2024-01-27T03:56:18;11.23;;;4.53;;
76202;SDS011;64985;46.364;17.008;2024-01-27T03:59:20;6.20;;;3.20;;
76202;SDS011;64985;46.364;17.008;2024-01-27T04:02:22;8.38;;;3.20;;
76202;SDS011;64985;46.364;17.008;2024-01-27T04:05:25;58.60;;;18.23;;
76202;SDS011;64985;46.364;17.008;2024-01-27T04:08:29;18.80;;;7.53;;
76202;SDS011;64985;46.364;17.008;2024-01-27T04:11:32;10.43;;;3.92;;
76202;SDS011;64985;46.364;17.008;2024-01-27T04:14:34;6.07;;;2.50;;
76202;SDS011;64985;46.364;17.008;2024-01-27T04:17:38;5.78;;;1.90;;
76202;SDS011;64985;46.364;17.008;2024-01-27T04:20:40;3.97;;;1.77;;
76202;SDS011;64985;46.364;17.008;2024-01-27T04:23:42;23.05;;;8.05;;
76202;SDS011;64985;46.364;17.008;2024-01-27T04:26:44;8.75;;;3.42;;
76202;SDS011;64985;46.364;17.008;2024-01-27T04:29:47;6.00;;;2.47;;
76202;SDS011;64985;46.364;17.008;2024-01-27T04:32:49;7.28;;;2.75;;
76202;SDS011;64985;46.364;17.008;2024-01-27T04:35:53;7.05;;;3.10;;
76202;SDS011;64985;46.364;17.008;2024-01-27T04:38:56;6.82;;;2.90;;
76202;SDS011;64985;46.364;17.008;2024-01-27T04:41:58;34.33;;;10.45;;
76202;SDS011;64985;46.364;17.008;2024-01-27T04:45:01;11.20;;;3.58;;
76202;SDS011;64985;46.364;17.008;2024-01-27T04:48:04;9.82;;;3.67;;
76202;SDS011;64985;46.364;17.008;2024-01-27T04:51:07;8.77;;;4.00;;
76202;SDS011;64985;46.364;17.008;2024-01-27T04:54:09;8.73;;;3.67;;
76202;SDS011;64985;46.364;17.008;2024-01-27T04:57:12;10.98;;;4.35;;
76202;SDS011;64985;46.364;17.008;2024-01-27T05:00:14;9.90;;;3.88;;
76202;SDS011;64985;46.364;17.008;2024-01-27T05:03:17;10.60;;;3.92;;
76202;SDS011;64985;46.364;17.008;2024-01-27T05:06:19;8.00;;;3.53;;
76202;SDS011;64985;46.364;17.008;2024-01-27T05:09:21;13.45;;;5.45;;
76202;SDS011;64985;46.364;17.008;2024-01-27T05:12:24;19.73;;;6.75;;
76202;SDS011;64985;46.364;17.008;2024-01-27T05:15:26;12.55;;;4.30;;
76202;SDS011;64985;46.364;17.008;2024-01-27T05:18:29;6.40;;;3.17;;
76202;SDS011;64985;46.364;17.008;2024-01-27T05:21:31;13.05;;;5.05;;
76202;SDS011;64985;46.364;17.008;2024-01-27T05:24:34;19.50;;;6.38;;
76202;SDS011;64985;46.364;17.008;2024-01-27T05:27:37;20.25;;;6.25;;
76202;SDS011;64985;46.364;17.008;2024-01-27T05:30:42;11.25;;;3.25;;
76202;SDS011;64985;46.364;17.008;2024-01-27T05:33:45;3.53;;;1.63;;
76202;SDS011;64985;46.364;17.008;2024-01-27T05:36:48;4.50;;;1.50;;
76202;SDS011;64985;46.364;17.008;2024-01-27T05:39:50;13.85;;;5.15;;
76202;SDS011;64985;46.364;17.008;2024-01-27T05:42:55;15.27;;;5.30;;
76202;SDS011;64985;46.364;17.008;2024-01-27T05:45:57;10.57;;;3.78;;
76202;SDS011;64985;46.364;17.008;2024-01-27T05:49:00;11.55;;;4.18;;
76202;SDS011;64985;46.364;17.008;2024-01-27T05:52:06;5.63;;;2.58;;
76202;SDS011;64985;46.364;17.008;2024-01-27T05:55:08;30.63;;;9.02;;
76202;SDS011;64985;46.364;17.008;2024-01-27T05:58:10;8.05;;;3.35;;
76202;SDS011;64985;46.364;17.008;2024-01-27T06:01:12;19.40;;;6.93;;
76202;SDS011;64985;46.364;17.008;2024-01-27T06:04:15;24.48;;;7.05;;
76202;SDS011;64985;46.364;17.008;2024-01-27T06:07:17;15.38;;;5.38;;
76202;SDS011;64985;46.364;17.008;2024-01-27T06:10:20;12.18;;;4.15;;
76202;SDS011;64985;46.364;17.008;2024-01-27T06:13:23;8.80;;;3.33;;
76202;SDS011;64985;46.364;17.008;2024-01-27T06:16:25;11.60;;;3.47;;
76202;SDS011;64985;46.364;17.008;2024-01-27T06:19:28;14.65;;;5.47;;
76202;SDS011;64985;46.364;17.008;2024-01-27T06:22:30;25.40;;;9.13;;
76202;SDS011;64985;46.364;17.008;2024-01-27T06:25:34;36.45;;;12.40;;
76202;SDS011;64985;46.364;17.008;2024-01-27T06:28:36;102.75;;;29.98;;
76202;SDS011;64985;46.364;17.008;2024-01-27T06:31:38;72.10;;;21.20;;
76202;SDS011;64985;46.364;17.008;2024-01-27T06:34:41;69.97;;;22.40;;
76202;SDS011;64985;46.364;17.008;2024-01-27T06:37:43;63.47;;;20.17;;
76202;SDS011;64985;46.364;17.008;2024-01-27T06:40:46;34.42;;;9.43;;
76202;SDS011;64985;46.364;17.008;2024-01-27T06:43:48;28.42;;;10.60;;
76202;SDS011;64985;46.364;17.008;2024-01-27T06:46:50;25.70;;;8.65;;
76202;SDS011;64985;46.364;17.008;2024-01-27T06:49:53;18.42;;;7.95;;
76202;SDS011;64985;46.364;17.008;2024-01-27T06:52:55;33.08;;;11.57;;
76202;SDS011;64985;46.364;17.008;2024-01-27T06:55:57;25.02;;;9.15;;
76202;SDS011;64985;46.364;17.008;2024-01-27T06:59:00;29.48;;;11.38;;
76202;SDS011;64985;46.364;17.008;2024-01-27T07:02:02;14.25;;;6.03;;
76202;SDS011;64985;46.364;17.008;2024-01-27T07:05:04;19.27;;;5.90;;
76202;SDS011;64985;46.364;17.008;2024-01-27T07:08:07;53.22;;;15.45;;
76202;SDS011;64985;46.364;17.008;2024-01-27T07:11:10;140.30;;;40.20;;
76202;SDS011;64985;46.364;17.008;2024-01-27T07:14:13;92.57;;;30.27;;
76202;SDS011;64985;46.364;17.008;2024-01-27T07:17:16;56.50;;;17.42;;
76202;SDS011;64985;46.364;17.008;2024-01-27T07:20:19;40.97;;;12.55;;
76202;SDS011;64985;46.364;17.008;2024-01-27T07:23:22;21.23;;;8.65;;
76202;SDS011;64985;46.364;17.008;2024-01-27T07:26:25;6.18;;;3.17;;
76202;SDS011;64985;46.364;17.008;2024-01-27T07:29:27;8.15;;;2.75;;
76202;SDS011;64985;46.364;17.008;2024-01-27T07:32:29;10.98;;;4.28;;
76202;SDS011;64985;46.364;17.008;2024-01-27T07:35:31;16.27;;;6.13;;
76202;SDS011;64985;46.364;17.008;2024-01-27T07:38:34;12.20;;;4.35;;
76202;SDS011;64985;46.364;17.008;2024-01-27T07:41:36;38.42;;;14.10;;
76202;SDS011;64985;46.364;17.008;2024-01-27T07:44:38;44.13;;;15.85;;
76202;SDS011;64985;46.364;17.008;2024-01-27T07:47:41;62.35;;;22.42;;
76202;SDS011;64985;46.364;17.008;2024-01-27T07:50:43;53.03;;;20.38;;
76202;SDS011;64985;46.364;17.008;2024-01-27T07:53:50;44.92;;;17.95;;
76202;SDS011;64985;46.364;17.008;2024-01-27T07:56:52;27.95;;;11.90;;
76202;SDS011;64985;46.364;17.008;2024-01-27T07:59:54;33.33;;;11.43;;
76202;SDS011;64985;46.364;17.008;2024-01-27T08:02:57;19.90;;;7.15;;
76202;SDS011;64985;46.364;17.008;2024-01-27T08:06:04;10.65;;;4.75;;
76202;SDS011;64985;46.364;17.008;2024-01-27T08:09:06;11.45;;;4.85;;
76202;SDS011;64985;46.364;17.008;2024-01-27T08:12:08;10.30;;;4.53;;
76202;SDS011;64985;46.364;17.008;2024-01-27T08:15:11;3.40;;;1.73;;
76202;SDS011;64985;46.364;17.008;2024-01-27T08:18:13;3.00;;;1.75;;
76202;SDS011;64985;46.364;17.008;2024-01-27T08:21:16;2.45;;;1.27;;
76202;SDS011;64985;46.364;17.008;2024-01-27T08:24:18;2.30;;;1.00;;
76202;SDS011;64985;46.364;17.008;2024-01-27T08:27:20;2.15;;;1.10;;
76202;SDS011;64985;46.364;17.008;2024-01-27T08:30:23;12.00;;;5.60;;
76202;SDS011;64985;46.364;17.008;2024-01-27T08:33:25;19.95;;;8.85;;
76202;SDS011;64985;46.364;17.008;2024-01-27T08:36:27;15.40;;;7.78;;
76202;SDS011;64985;46.364;17.008;2024-01-27T08:39:30;38.60;;;20.58;;
76202;SDS011;64985;46.364;17.008;2024-01-27T08:42:32;23.10;;;10.63;;
76202;SDS011;64985;46.364;17.008;2024-01-27T08:45:36;7.57;;;3.10;;
76202;SDS011;64985;46.364;17.008;2024-01-27T08:48:40;5.13;;;2.88;;
76202;SDS011;64985;46.364;17.008;2024-01-27T08:51:43;8.85;;;3.90;;
76202;SDS011;64985;46.364;17.008;2024-01-27T08:54:45;10.27;;;5.72;;
76202;SDS011;64985;46.364;17.008;2024-01-27T08:57:47;6.57;;;3.60;;
76202;SDS011;64985;46.364;17.008;2024-01-27T09:00:50;4.72;;;2.40;;
76202;SDS011;64985;46.364;17.008;2024-01-27T09:03:53;2.38;;;1.00;;
76202;SDS011;64985;46.364;17.008;2024-01-27T09:06:55;4.75;;;1.10;;
76202;SDS011;64985;46.364;17.008;2024-01-27T09:09:57;1.80;;;0.95;;
76202;SDS011;64985;46.364;17.008;2024-01-27T09:12:59;2.67;;;1.13;;
76202;SDS011;64985;46.364;17.008;2024-01-27T09:16:02;2.30;;;1.00;;
76202;SDS011;64985;46.364;17.008;2024-01-27T09:19:04;3.20;;;1.08;;
76202;SDS011;64985;46.364;17.008;2024-01-27T09:22:07;1.33;;;0.88;;
76202;SDS011;64985;46.364;17.008;2024-01-27T09:25:09;5.85;;;1.88;;
76202;SDS011;64985;46.364;17.008;2024-01-27T09:28:11;3.00;;;1.30;;
76202;SDS011;64985;46.364;17.008;2024-01-27T09:31:14;2.83;;;1.48;;
76202;SDS011;64985;46.364;17.008;2024-01-27T09:34:16;2.88;;;1.30;;
76202;SDS011;64985;46.364;17.008;2024-01-27T09:37:18;2.30;;;1.10;;
76202;SDS011;64985;46.364;17.008;2024-01-27T09:40:21;3.90;;;1.33;;
76202;SDS011;64985;46.364;17.008;2024-01-27T09:43:23;5.57;;;2.70;;
76202;SDS011;64985;46.364;17.008;2024-01-27T09:46:27;4.43;;;2.30;;
76202;SDS011;64985;46.364;17.008;2024-01-27T09:49:30;6.35;;;2.90;;
76202;SDS011;64985;46.364;17.008;2024-01-27T09:52:33;5.85;;;2.42;;
76202;SDS011;64985;46.364;17.008;2024-01-27T09:55:35;6.60;;;2.60;;
76202;SDS011;64985;46.364;17.008;2024-01-27T09:58:38;6.57;;;2.80;;
76202;SDS011;64985;46.364;17.008;2024-01-27T10:01:43;4.43;;;2.15;;
76202;SDS011;64985;46.364;17.008;2024-01-27T10:04:47;3.90;;;2.17;;
76202;SDS011;64985;46.364;17.008;2024-01-27T10:07:51;3.03;;;1.15;;
76202;SDS011;64985;46.364;17.008;2024-01-27T10:10:57;5.85;;;2.70;;
76202;SDS011;64985;46.364;17.008;2024-01-27T10:14:00;7.32;;;2.90;;
76202;SDS011;64985;46.364;17.008;2024-01-27T10:17:02;3.97;;;2.10;;
76202;SDS011;64985;46.364;17.008;2024-01-27T10:20:05;5.75;;;2.50;;
76202;SDS011;64985;46.364;17.008;2024-01-27T10:23:11;6.88;;;3.70;;
76202;SDS011;64985;46.364;17.008;2024-01-27T10:26:14;6.55;;;3.15;;
76202;SDS011;64985;46.364;17.008;2024-01-27T10:29:17;5.65;;;2.45;;
76202;SDS011;64985;46.364;17.008;2024-01-27T10:32:19;7.05;;;2.47;;
76202;SDS011;64985;46.364;17.008;2024-01-27T10:35:22;5.90;;;2.80;;
76202;SDS011;64985;46.364;17.008;2024-01-27T10:38:33;5.45;;;3.15;;
76202;SDS011;64985;46.364;17.008;2024-01-27T10:41:39;5.82;;;3.17;;
76202;SDS011;64985;46.364;17.008;2024-01-27T10:44:42;6.38;;;3.30;;
76202;SDS011;64985;46.364;17.008;2024-01-27T10:47:46;17.65;;;9.73;;
76202;SDS011;64985;46.364;17.008;2024-01-27T10:50:50;5.18;;;3.30;;
76202;SDS011;64985;46.364;17.008;2024-01-27T10:53:52;14.48;;;8.52;;
76202;SDS011;64985;46.364;17.008;2024-01-27T10:57:02;25.67;;;13.32;;
76202;SDS011;64985;46.364;17.008;2024-01-27T11:00:05;13.25;;;7.85;;
76202;SDS011;64985;46.364;17.008;2024-01-27T11:03:08;10.23;;;5.85;;
76202;SDS011;64985;46.364;17.008;2024-01-27T11:06:12;8.57;;;3.22;;
76202;SDS011;64985;46.364;17.008;2024-01-27T11:09:17;11.30;;;3.72;;
76202;SDS011;64985;46.364;17.008;2024-01-27T11:12:21;7.30;;;2.00;;
76202;SDS011;64985;46.364;17.008;2024-01-27T11:15:23;4.65;;;1.80;;
76202;SDS011;64985;46.364;17.008;2024-01-27T11:18:26;4.80;;;2.30;;
76202;SDS011;64985;46.364;17.008;2024-01-27T11:21:29;6.38;;;2.63;;
76202;SDS011;64985;46.364;17.008;2024-01-27T11:24:31;5.78;;;2.15;;
76202;SDS011;64985;46.364;17.008;2024-01-27T11:27:34;5.68;;;2.53;;
76202;SDS011;64985;46.364;17.008;2024-01-27T11:30:37;12.40;;;5.15;;
76202;SDS011;64985;46.364;17.008;2024-01-27T11:33:42;4.07;;;2.15;;
76202;SDS011;64985;46.364;17.008;2024-01-27T11:36:46;5.70;;;2.90;;
76202;SDS011;64985;46.364;17.008;2024-01-27T11:39:50;5.55;;;1.90;;
76202;SDS011;64985;46.364;17.008;2024-01-27T11:42:57;2.78;;;1.52;;
76202;SDS011;64985;46.364;17.008;2024-01-27T11:46:00;3.25;;;1.98;;
76202;SDS011;64985;46.364;17.008;2024-01-27T11:49:03;3.03;;;1.73;;
76202;SDS011;64985;46.364;17.008;2024-01-27T11:52:06;4.28;;;1.70;;
76202;SDS011;64985;46.364;17.008;2024-01-27T11:55:08;5.43;;;2.90;;
76202;SDS011;64985;46.364;17.008;2024-01-27T11:58:10;3.85;;;2.20;;
76202;SDS011;64985;46.364;17.008;2024-01-27T12:01:13;6.95;;;4.05;;
76202;SDS011;64985;46.364;17.008;2024-01-27T12:04:16;5.50;;;2.00;;
76202;SDS011;64985;46.364;17.008;2024-01-27T12:07:19;4.55;;;2.40;;
76202;SDS011;64985;46.364;17.008;2024-01-27T12:10:23;3.95;;;1.70;;
76202;SDS011;64985;46.364;17.008;2024-01-27T12:13:25;3.65;;;1.10;;
76202;SDS011;64985;46.364;17.008;2024-01-27T12:16:28;1.65;;;1.30;;
76202;SDS011;64985;46.364;17.008;2024-01-27T12:19:30;4.65;;;2.53;;
76202;SDS011;64985;46.364;17.008;2024-01-27T12:22:33;4.60;;;1.80;;
76202;SDS011;64985;46.364;17.008;2024-01-27T12:25:35;7.05;;;3.78;;
76202;SDS011;64985;46.364;17.008;2024-01-27T12:28:37;4.78;;;1.98;;
76202;SDS011;64985;46.364;17.008;2024-01-27T12:31:39;3.35;;;1.90;;
76202;SDS011;64985;46.364;17.008;2024-01-27T12:34:42;3.08;;;1.52;;
76202;SDS011;64985;46.364;17.008;2024-01-27T12:37:47;4.97;;;1.00;;
76202;SDS011;64985;46.364;17.008;2024-01-27T12:40:51;3.80;;;1.20;;
76202;SDS011;64985;46.364;17.008;2024-01-27T12:43:54;7.45;;;3.60;;
76202;SDS011;64985;46.364;17.008;2024-01-27T12:46:56;1.98;;;1.20;;
76202;SDS011;64985;46.364;17.008;2024-01-27T12:49:59;2.83;;;1.30;;
76202;SDS011;64985;46.364;17.008;2024-01-27T12:53:01;4.20;;;2.53;;
76202;SDS011;64985;46.364;17.008;2024-01-27T12:56:04;7.47;;;2.90;;
76202;SDS011;64985;46.364;17.008;2024-01-27T12:59:07;2.58;;;1.50;;
76202;SDS011;64985;46.364;17.008;2024-01-27T13:02:10;3.15;;;1.27;;
76202;SDS011;64985;46.364;17.008;2024-01-27T13:05:12;2.58;;;1.30;;
76202;SDS011;64985;46.364;17.008;2024-01-27T13:08:15;4.43;;;2.45;;
76202;SDS011;64985;46.364;17.008;2024-01-27T13:11:17;3.97;;;1.50;;
76202;SDS011;64985;46.364;17.008;2024-01-27T13:14:19;5.43;;;3.80;;
76202;SDS011;64985;46.364;17.008;2024-01-27T13:17:22;2.63;;;1.63;;
76202;SDS011;64985;46.364;17.008;2024-01-27T13:20:24;7.32;;;2.80;;
76202;SDS011;64985;46.364;17.008;2024-01-27T13:23:27;10.20;;;7.55;;
76202;SDS011;64985;46.364;17.008;2024-01-27T13:26:29;3.83;;;1.80;;
76202;SDS011;64985;46.364;17.008;2024-01-27T13:29:34;7.72;;;3.80;;
76202;SDS011;64985;46.364;17.008;2024-01-27T13:32:36;5.90;;;2.60;;
76202;SDS011;64985;46.364;17.008;2024-01-27T13:35:39;8.93;;;4.55;;
76202;SDS011;64985;46.364;17.008;2024-01-27T13:38:50;8.13;;;4.80;;
76202;SDS011;64985;46.364;17.008;2024-01-27T13:41:53;7.32;;;4.03;;
76202;SDS011;64985;46.364;17.008;2024-01-27T13:44:55;14.07;;;7.80;;
76202;SDS011;64985;46.364;17.008;2024-01-27T13:47:57;13.85;;;8.55;;
76202;SDS011;64985;46.364;17.008;2024-01-27T13:51:00;6.40;;;3.28;;
76202;SDS011;64985;46.364;17.008;2024-01-27T13:54:02;6.85;;;4.78;;
76202;SDS011;64985;46.364;17.008;2024-01-27T13:57:05;24.08;;;11.10;;
76202;SDS011;64985;46.364;17.008;2024-01-27T14:00:08;19.83;;;8.80;;
76202;SDS011;64985;46.364;17.008;2024-01-27T14:03:11;7.40;;;4.10;;
76202;SDS011;64985;46.364;17.008;2024-01-27T14:06:14;12.80;;;6.35;;
76202;SDS011;64985;46.364;17.008;2024-01-27T14:09:16;14.30;;;6.72;;
76202;SDS011;64985;46.364;17.008;2024-01-27T14:12:19;23.95;;;10.85;;
76202;SDS011;64985;46.364;17.008;2024-01-27T14:15:21;20.35;;;10.13;;
76202;SDS011;64985;46.364;17.008;2024-01-27T14:18:24;12.50;;;6.00;;
76202;SDS011;64985;46.364;17.008;2024-01-27T14:21:26;12.98;;;5.80;;
76202;SDS011;64985;46.364;17.008;2024-01-27T14:24:30;9.38;;;4.55;;
76202;SDS011;64985;46.364;17.008;2024-01-27T14:27:35;13.98;;;6.30;;
76202;SDS011;64985;46.364;17.008;2024-01-27T14:30:37;14.25;;;6.63;;
76202;SDS011;64985;46.364;17.008;2024-01-27T14:33:41;5.72;;;3.25;;
76202;SDS011;64985;46.364;17.008;2024-01-27T14:36:44;11.43;;;5.70;;
76202;SDS011;64985;46.364;17.008;2024-01-27T14:39:46;6.55;;;3.08;;
76202;SDS011;64985;46.364;17.008;2024-01-27T14:42:49;6.45;;;3.15;;
76202;SDS011;64985;46.364;17.008;2024-01-27T14:45:52;7.22;;;3.05;;
76202;SDS011;64985;46.364;17.008;2024-01-27T14:48:54;5.95;;;3.30;;
76202;SDS011;64985;46.364;17.008;2024-01-27T14:51:57;4.80;;;2.97;;
76202;SDS011;64985;46.364;17.008;2024-01-27T14:54:59;5.85;;;3.05;;
76202;SDS011;64985;46.364;17.008;2024-01-27T14:58:02;6.32;;;3.28;;
76202;SDS011;64985;46.364;17.008;2024-01-27T15:01:05;7.60;;;3.50;;
76202;SDS011;64985;46.364;17.008;2024-01-27T15:04:08;11.95;;;6.03;;
76202;SDS011;64985;46.364;17.008;2024-01-27T15:07:10;16.92;;;7.75;;
76202;SDS011;64985;46.364;17.008;2024-01-27T15:10:17;17.83;;;7.38;;
76202;SDS011;64985;46.364;17.008;2024-01-27T15:13:19;27.17;;;8.63;;
76202;SDS011;64985;46.364;17.008;2024-01-27T15:16:25;18.85;;;9.13;;
76202;SDS011;64985;46.364;17.008;2024-01-27T15:19:27;33.17;;;17.42;;
76202;SDS011;64985;46.364;17.008;2024-01-27T15:22:40;191.38;;;86.20;;
76202;SDS011;64985;46.364;17.008;2024-01-27T15:25:42;176.05;;;81.78;;
76202;SDS011;64985;46.364;17.008;2024-01-27T15:28:46;131.48;;;59.45;;
76202;SDS011;64985;46.364;17.008;2024-01-27T15:31:48;109.85;;;51.78;;
76202;SDS011;64985;46.364;17.008;2024-01-27T15:34:51;34.15;;;14.63;;
76202;SDS011;64985;46.364;17.008;2024-01-27T15:37:54;29.02;;;12.90;;
76202;SDS011;64985;46.364;17.008;2024-01-27T15:40:56;45.40;;;20.30;;
76202;SDS011;64985;46.364;17.008;2024-01-27T15:43:59;40.78;;;20.55;;
76202;SDS011;64985;46.364;17.008;2024-01-27T15:47:02;17.40;;;8.30;;
76202;SDS011;64985;46.364;17.008;2024-01-27T15:50:04;34.13;;;15.57;;
76202;SDS011;64985;46.364;17.008;2024-01-27T15:53:08;45.03;;;20.63;;
76202;SDS011;64985;46.364;17.008;2024-01-27T15:56:10;40.35;;;18.33;;
76202;SDS011;64985;46.364;17.008;2024-01-27T15:59:13;38.63;;;19.38;;
76202;SDS011;64985;46.364;17.008;2024-01-27T16:02:18;24.05;;;11.00;;
76202;SDS011;64985;46.364;17.008;2024-01-27T16:05:20;16.58;;;7.93;;
76202;SDS011;64985;46.364;17.008;2024-01-27T16:08:23;22.17;;;10.13;;
76202;SDS011;64985;46.364;17.008;2024-01-27T16:11:25;24.15;;;11.63;;
76202;SDS011;64985;46.364;17.008;2024-01-27T16:14:27;42.42;;;18.70;;
76202;SDS011;64985;46.364;17.008;2024-01-27T16:17:29;31.02;;;14.40;;
76202;SDS011;64985;46.364;17.008;2024-01-27T16:20:31;33.15;;;14.73;;
76202;SDS011;64985;46.364;17.008;2024-01-27T16:23:34;38.78;;;17.27;;
76202;SDS011;64985;46.364;17.008;2024-01-27T16:26:36;39.60;;;16.48;;
76202;SDS011;64985;46.364;17.008;2024-01-27T16:29:38;38.97;;;19.02;;
76202;SDS011;64985;46.364;17.008;2024-01-27T16:32:40;40.55;;;19.23;;
76202;SDS011;64985;46.364;17.008;2024-01-27T16:35:43;33.55;;;15.65;;
76202;SDS011;64985;46.364;17.008;2024-01-27T16:38:46;47.90;;;19.75;;
76202;SDS011;64985;46.364;17.008;2024-01-27T16:41:48;53.75;;;20.60;;
76202;SDS011;64985;46.364;17.008;2024-01-27T16:44:50;26.40;;;12.02;;
76202;SDS011;64985;46.364;17.008;2024-01-27T16:47:52;22.88;;;10.65;;
76202;SDS011;64985;46.364;17.008;2024-01-27T16:50:54;29.15;;;12.32;;
76202;SDS011;64985;46.364;17.008;2024-01-27T16:53:58;35.03;;;14.27;;
76202;SDS011;64985;46.364;17.008;2024-01-27T16:57:00;31.75;;;13.75;;
76202;SDS011;64985;46.364;17.008;2024-01-27T17:00:02;28.98;;;12.50;;
76202;SDS011;64985;46.364;17.008;2024-01-27T17:03:05;31.08;;;14.07;;
76202;SDS011;64985;46.364;17.008;2024-01-27T17:06:08;27.25;;;12.70;;
76202;SDS011;64985;46.364;17.008;2024-01-27T17:09:11;26.27;;;12.38;;
76202;SDS011;64985;46.364;17.008;2024-01-27T17:12:15;39.40;;;15.82;;
76202;SDS011;64985;46.364;17.008;2024-01-27T17:15:18;45.47;;;19.23;;
76202;SDS011;64985;46.364;17.008;2024-01-27T17:18:22;50.63;;;19.90;;
76202;SDS011;64985;46.364;17.008;2024-01-27T17:21:27;51.70;;;22.45;;
76202;SDS011;64985;46.364;17.008;2024-01-27T17:24:29;97.43;;;34.85;;
76202;SDS011;64985;46.364;17.008;2024-01-27T17:27:31;149.73;;;44.75;;
76202;SDS011;64985;46.364;17.008;2024-01-27T17:30:34;148.00;;;43.30;;
76202;SDS011;64985;46.364;17.008;2024-01-27T17:33:36;109.10;;;34.00;;
76202;SDS011;64985;46.364;17.008;2024-01-27T17:36:40;60.67;;;20.92;;
76202;SDS011;64985;46.364;17.008;2024-01-27T17:39:43;57.92;;;20.52;;
76202;SDS011;64985;46.364;17.008;2024-01-27T17:42:45;111.47;;;33.78;;
76202;SDS011;64985;46.364;17.008;2024-01-27T17:45:48;144.15;;;37.20;;
76202;SDS011;64985;46.364;17.008;2024-01-27T17:48:50;117.93;;;33.33;;
76202;SDS011;64985;46.364;17.008;2024-01-27T17:51:52;84.05;;;25.63;;
76202;SDS011;64985;46.364;17.008;2024-01-27T17:54:55;71.72;;;22.85;;